Okeana, Ohio
Current Conditions -  °F | °C
As of 10:35 AM on Friday 28 Nov 2014 (Local Time) from KI67 Reporting Station
Broken Clouds Broken Clouds  
Wind Chill: 23°   Ceiling: 6500
Heat Index: 30°   Visibility: 10mi
Dew Point: 19°   Wind: 8mph
Humidity: 64%   Direction: 210°SSW
Pressure: 30.38"   Gusts: NA
Location:  39.35°N, 84.77°W
Report Text: KI67 281535Z AUTO 21007KT 10SM SCT055 BKN065 BKN085 M01/M07 A3038 RMK AO1
Loading
Personal Weather Stations






























Interactive Weather Map New forecast layout! Learn more

10-Day Weather Forecast

Advertisements
Track Severe Weather on mobile